Main page
METAR-TAF:

METAR-TAF

Airports :

Stornoway, Scotland

Stornoway Airport

latitude: 58-13N, longitude: 006-19W, elevation: 9 m

Current weather observation

The report was made 24 minutes ago, at 02:20 UTC
Wind 5 kt from the North/Northwest
Temperature 11°C
Humidity 100%
Pressure 1020 hPa
Visibility 10 km or more

METAR: EGPO 240220Z AUTO 34005KT 9999 SCT009/// 11/11 Q1020

Time: 03:44 (02:44 UTC)

Forecast

The report was made 41 minutes ago, at 02:03 UTC
Forecast valid from 24 at 03 UTC to 24 at 12 UTC
Wind 8 kt from the North
Visibility 10 km or more
Scattered clouds at a height of 800 ft
Temporary
from 24 at 03 UTC to 24 at 09 UTC
Visibility: 7000 m
Broken clouds at a height of 800 ft
Probability 30% :
Temporary
from 24 at 03 UTC to 24 at 06 UTC
Visibility: 4000 m
Broken clouds at a height of 400 ft
mist

TAF: EGPO 240203Z 2403/2412 01008KT 9999 SCT008 TEMPO 2403/2409 7000 BKN008 PROB30 TEMPO 2403/2406 4000 BR BKN004

Weather observations and forecasts of more than 4000 airports (METAR and TAF reports).

The available stations are represented by yellow and red dots on the map.

Hover mouse over dot to see the name of the station.

Then click to see weather observations and forecasts.

To change the map : click on the green buttons with a black cross to zoom in, on the green button with a dash to zoom out, or on the green arrows for adjacent maps.


METAR-TAF: